createdAt,value
2018-05-15T00:00:14.913Z,90.40
2018-05-15T00:02:42.432Z,90.40
2018-05-15T00:05:09.973Z,90.50
2018-05-15T00:07:38.256Z,91.20
2018-05-15T00:10:06.568Z,91.10
2018-05-15T00:12:34.093Z,91.10
2018-05-15T00:15:02.418Z,90.90
2018-05-15T00:17:30.833Z,90.90
2018-05-15T00:19:59.995Z,92.80
2018-05-15T00:22:28.269Z,92.70
2018-05-15T00:24:55.812Z,92.90
2018-05-15T00:27:25.074Z,94.10
2018-05-15T00:29:57.220Z,94.20
2018-05-15T00:32:25.422Z,94.20
2018-05-15T00:34:52.971Z,94.40
2018-05-15T00:37:20.488Z,94.50
2018-05-15T00:39:48.068Z,95.30
2018-05-15T00:42:15.583Z,95.90
2018-05-15T00:44:44.098Z,96.30
2018-05-15T00:47:12.402Z,97.30
2018-05-15T00:49:40.510Z,97.30
2018-05-15T00:52:09.301Z,98.00
2018-05-15T00:54:36.821Z,98.00
2018-05-15T00:57:04.360Z,99.20
2018-05-15T00:59:32.673Z,99.90
2018-05-15T01:02:00.232Z,99.90
2018-05-15T01:04:27.753Z,99.90
2018-05-15T01:06:55.361Z,99.90
2018-05-15T01:09:24.091Z,98.30
2018-05-15T01:11:52.161Z,97.90
2018-05-15T01:14:19.684Z,99.40
2018-05-15T01:16:47.225Z,97.30
2018-05-15T01:19:15.829Z,99.20
2018-05-15T01:21:43.364Z,99.20
2018-05-15T01:24:11.648Z,98.30
2018-05-15T01:26:39.948Z,97.60
2018-05-15T01:29:07.470Z,97.60
2018-05-15T01:31:35.008Z,98.10
2018-05-15T01:34:02.651Z,97.70
2018-05-15T01:36:30.213Z,97.40
2018-05-15T01:38:57.736Z,97.50
2018-05-15T01:41:28.033Z,96.90
2018-05-15T01:43:55.578Z,96.80
2018-05-15T01:46:24.273Z,97.30
2018-05-15T01:48:51.817Z,97.30
2018-05-15T01:51:19.336Z,97.00
2018-05-15T01:53:46.872Z,97.00
2018-05-15T01:56:15.304Z,97.10
2018-05-15T01:58:43.712Z,98.70
2018-05-15T02:01:14.174Z,98.70
2018-05-15T02:03:41.716Z,98.60
2018-05-15T02:06:09.232Z,99.50
2018-05-15T02:08:37.532Z,99.90
2018-05-15T02:11:05.052Z,99.90
2018-05-15T02:13:32.592Z,99.90
2018-05-15T02:16:00.122Z,99.90
2018-05-15T02:18:27.669Z,99.90
2018-05-15T02:20:56.618Z,99.90
2018-05-15T02:23:24.161Z,99.90
2018-05-15T02:25:51.719Z,99.90
2018-05-15T02:28:19.267Z,99.90
2018-05-15T02:30:46.791Z,99.90
2018-05-15T02:33:14.416Z,99.90
2018-05-15T02:35:41.969Z,99.90
2018-05-15T02:38:10.059Z,99.90
2018-05-15T02:40:37.600Z,99.90
2018-05-15T02:43:05.121Z,99.90
2018-05-15T02:45:33.463Z,99.90
2018-05-15T02:48:01.028Z,99.90
2018-05-15T02:50:29.193Z,99.90
2018-05-15T02:52:56.711Z,99.90
2018-05-15T02:55:24.248Z,99.90
2018-05-15T02:57:51.768Z,99.90
2018-05-15T03:00:21.082Z,99.90
2018-05-15T03:02:48.601Z,99.90
2018-05-15T03:05:16.140Z,99.90
2018-05-15T03:07:43.662Z,99.90
2018-05-15T03:10:11.980Z,99.90
2018-05-15T03:12:40.768Z,99.90
2018-05-15T03:15:08.292Z,99.90
2018-05-15T03:17:36.593Z,99.90
2018-05-15T03:20:04.172Z,99.90
2018-05-15T03:22:32.176Z,99.90
2018-05-15T03:25:00.460Z,99.90
2018-05-15T03:27:27.997Z,99.90
2018-05-15T03:29:55.516Z,99.90
2018-05-15T03:32:23.052Z,99.90
2018-05-15T03:34:50.660Z,99.90
2018-05-15T03:37:18.200Z,99.90
2018-05-15T03:39:46.480Z,99.90
2018-05-15T03:42:14.793Z,99.90
2018-05-15T03:44:42.312Z,99.90
2018-05-15T03:47:10.624Z,99.90
2018-05-15T03:49:38.192Z,99.90
2018-05-15T03:52:05.741Z,99.90
2018-05-15T03:54:33.264Z,99.90
2018-05-15T03:57:00.824Z,99.90
2018-05-15T03:59:29.108Z,99.90
2018-05-15T04:02:08.694Z,99.90
2018-05-15T04:04:47.974Z,99.90
2018-05-15T04:07:27.556Z,99.90
2018-05-15T04:09:55.853Z,99.90
2018-05-15T04:12:23.401Z,99.90
2018-05-15T04:14:51.691Z,99.90
2018-05-15T04:17:20.012Z,99.90
2018-05-15T04:19:47.536Z,99.90
2018-05-15T04:22:15.124Z,99.90
2018-05-15T04:24:42.665Z,99.90
2018-05-15T04:27:10.947Z,99.90
2018-05-15T04:29:38.484Z,99.90
2018-05-15T04:32:06.004Z,99.90
2018-05-15T04:34:33.535Z,99.90
2018-05-15T04:37:01.826Z,99.90
2018-05-15T04:39:29.369Z,99.90
2018-05-15T04:41:57.657Z,99.90
2018-05-15T04:44:25.957Z,99.90
2018-05-15T04:46:53.680Z,99.90
2018-05-15T04:49:21.296Z,99.90
2018-05-15T04:51:48.755Z,99.90
2018-05-15T04:54:16.300Z,99.90
2018-05-15T04:56:44.589Z,96.40
2018-05-15T04:59:12.149Z,96.30
2018-05-15T05:01:39.665Z,93.40
2018-05-15T05:04:07.220Z,90.60
2018-05-15T05:06:34.756Z,86.60
2018-05-15T05:09:02.281Z,81.00
2018-05-15T05:11:30.592Z,75.20
2018-05-15T05:13:58.110Z,75.10
2018-05-15T05:16:25.649Z,72.80
2018-05-15T05:18:53.172Z,69.00
2018-05-15T05:21:20.708Z,66.70
2018-05-15T05:23:48.995Z,64.50
2018-05-15T05:26:17.306Z,63.80
2018-05-15T05:28:44.826Z,63.80
2018-05-15T05:31:13.131Z,64.40
2018-05-15T05:33:40.654Z,63.70
2018-05-15T05:36:08.197Z,60.30
2018-05-15T05:38:35.720Z,60.40
2018-05-15T05:41:03.256Z,59.10
2018-05-15T05:43:31.545Z,59.60
2018-05-15T05:45:59.860Z,57.70
2018-05-15T05:48:27.383Z,57.60
2018-05-15T05:50:55.694Z,58.80
2018-05-15T05:53:23.212Z,58.60
2018-05-15T05:55:50.750Z,58.00
2018-05-15T05:58:18.276Z,57.40
2018-05-15T06:00:45.824Z,59.00
2018-05-15T06:03:13.340Z,57.10
2018-05-15T06:05:40.861Z,58.30
2018-05-15T06:08:08.403Z,57.60
2018-05-15T06:10:36.716Z,58.20
2018-05-15T06:13:04.288Z,58.20
2018-05-15T06:15:31.809Z,58.70
2018-05-15T06:18:00.109Z,58.30
2018-05-15T06:20:27.638Z,58.30
2018-05-15T06:22:55.177Z,60.70
2018-05-15T06:25:22.698Z,60.90
2018-05-15T06:27:50.242Z,59.80
2018-05-15T06:30:18.533Z,60.90
2018-05-15T06:32:46.084Z,60.90
2018-05-15T06:35:13.610Z,60.80
2018-05-15T06:37:41.149Z,61.40
2018-05-15T06:40:08.669Z,59.70
2018-05-15T06:42:36.980Z,59.60
2018-05-15T06:45:04.496Z,59.00
2018-05-15T06:47:32.805Z,58.10
2018-05-15T06:50:00.336Z,57.50
2018-05-15T06:52:28.641Z,60.10
2018-05-15T06:54:56.170Z,59.80
2018-05-15T06:57:24.477Z,62.90
2018-05-15T06:59:52.005Z,62.80
2018-05-15T07:02:19.571Z,58.90
2018-05-15T07:04:48.596Z,59.60
2018-05-15T07:07:16.887Z,60.00
2018-05-15T07:09:44.470Z,59.90
2018-05-15T07:12:11.993Z,62.40
2018-05-15T07:14:40.292Z,62.90
2018-05-15T07:17:08.579Z,66.20
2018-05-15T07:19:36.215Z,66.20
2018-05-15T07:22:03.672Z,66.20
2018-05-15T07:24:31.207Z,70.20
2018-05-15T07:26:58.727Z,65.90
2018-05-15T07:29:26.272Z,66.20
2018-05-15T07:31:54.592Z,65.10
2018-05-15T07:34:22.132Z,65.10
2018-05-15T07:36:50.412Z,65.20
2018-05-15T07:39:17.953Z,65.20
2018-05-15T07:41:45.472Z,59.00
2018-05-15T07:44:13.017Z,64.40
2018-05-15T07:46:40.534Z,61.00
2018-05-15T07:49:08.072Z,62.50
2018-05-15T07:51:35.585Z,64.80
2018-05-15T07:54:03.889Z,61.00
2018-05-15T07:56:31.405Z,61.10
2018-05-15T07:58:58.951Z,58.80
2018-05-15T08:01:26.488Z,59.30
2018-05-15T08:03:53.999Z,62.70
2018-05-15T08:06:21.617Z,62.40
2018-05-15T08:08:49.141Z,67.40
2018-05-15T08:11:17.444Z,61.40
2018-05-15T08:13:44.970Z,61.40
2018-05-15T08:16:12.538Z,62.20
2018-05-15T08:18:40.041Z,62.60
2018-05-15T08:21:07.580Z,65.10
2018-05-15T08:23:35.865Z,68.40
2018-05-15T08:26:03.403Z,68.30
2018-05-15T08:28:30.929Z,62.10
2018-05-15T08:30:58.538Z,59.30
2018-05-15T08:33:26.007Z,60.60
2018-05-15T08:35:53.545Z,57.80
2018-05-15T08:38:21.156Z,62.50
2018-05-15T08:40:48.709Z,63.90
2018-05-15T08:43:16.284Z,60.20
2018-05-15T08:45:43.798Z,65.10
2018-05-15T08:48:11.349Z,62.00
2018-05-15T08:50:38.868Z,64.60
2018-05-15T08:53:06.408Z,63.50
2018-05-15T08:55:33.929Z,61.90
2018-05-15T08:58:01.468Z,60.20
2018-05-15T09:00:29.065Z,59.40
2018-05-15T09:02:56.563Z,61.60
2018-05-15T09:05:24.084Z,67.90
2018-05-15T09:07:51.624Z,61.50
2018-05-15T09:10:19.146Z,64.10
2018-05-15T09:12:47.446Z,57.40
2018-05-15T09:15:14.961Z,57.30
2018-05-15T09:17:42.511Z,61.00
2018-05-15T09:20:10.034Z,62.60
2018-05-15T09:22:37.578Z,60.20
2018-05-15T09:25:05.862Z,62.50
2018-05-15T09:27:33.403Z,62.50
2018-05-15T09:30:01.693Z,59.50
2018-05-15T09:32:30.000Z,59.80
2018-05-15T09:34:57.567Z,59.80
2018-05-15T09:37:25.088Z,58.60
2018-05-15T09:39:52.628Z,59.20
2018-05-15T09:42:20.145Z,57.40
2018-05-15T09:44:47.681Z,59.60
2018-05-15T09:47:15.966Z,58.70
2018-05-15T09:49:44.316Z,63.20
2018-05-15T09:52:11.860Z,63.20
2018-05-15T09:54:39.397Z,58.40
2018-05-15T09:57:06.916Z,62.20
2018-05-15T09:59:34.457Z,61.80
2018-05-15T10:02:01.980Z,58.60
2018-05-15T10:04:29.528Z,56.70
2018-05-15T10:06:57.816Z,59.70
2018-05-15T10:09:25.357Z,59.60
2018-05-15T10:11:53.644Z,58.10
2018-05-15T10:14:21.948Z,59.20
2018-05-15T10:16:49.469Z,59.20
2018-05-15T10:19:17.013Z,59.60
2018-05-15T10:21:44.529Z,57.60
2018-05-15T10:24:12.087Z,59.80
2018-05-15T10:26:39.608Z,59.50
2018-05-15T10:29:07.121Z,59.60
2018-05-15T10:31:34.664Z,61.60
2018-05-15T10:34:02.947Z,59.90
2018-05-15T10:36:31.258Z,61.50
2018-05-15T10:38:58.778Z,61.50
2018-05-15T10:41:26.323Z,66.00
2018-05-15T10:43:53.872Z,62.90
2018-05-15T10:46:21.420Z,64.30
2018-05-15T10:48:48.937Z,68.30
2018-05-15T10:51:17.250Z,66.40
2018-05-15T10:53:44.774Z,66.00
2018-05-15T10:56:12.309Z,62.80
2018-05-15T10:58:39.829Z,60.50
2018-05-15T11:01:07.388Z,62.40
2018-05-15T11:03:34.957Z,58.60
2018-05-15T11:06:02.492Z,63.00
2018-05-15T11:08:30.054Z,60.50
2018-05-15T11:10:58.367Z,60.60
2018-05-15T11:13:25.884Z,60.50
2018-05-15T11:15:53.400Z,62.50
2018-05-15T11:18:30.672Z,59.50
2018-05-15T11:21:10.240Z,59.30
2018-05-15T11:23:49.678Z,57.40
2018-05-15T11:26:17.230Z,62.00
2018-05-15T11:28:44.754Z,59.60
2018-05-15T11:31:12.274Z,59.00
2018-05-15T11:33:39.818Z,58.20
2018-05-15T11:36:07.342Z,59.20
2018-05-15T11:38:34.881Z,59.60
2018-05-15T11:41:02.405Z,59.00
2018-05-15T11:43:29.950Z,53.90
2018-05-15T11:45:58.237Z,56.60
2018-05-15T11:48:26.518Z,56.50
2018-05-15T11:50:53.930Z,58.20
2018-05-15T11:53:21.124Z,58.50
2018-05-15T11:55:49.231Z,56.40
2018-05-15T11:58:16.787Z,56.40
2018-05-15T12:00:44.301Z,59.70
2018-05-15T12:03:11.856Z,61.90
2018-05-15T12:05:39.385Z,60.70
2018-05-15T12:08:06.959Z,60.20
2018-05-15T12:10:34.508Z,62.30
2018-05-15T12:13:02.008Z,61.50
2018-05-15T12:15:29.549Z,62.50
2018-05-15T12:17:57.070Z,59.50
2018-05-15T12:20:24.614Z,60.70
2018-05-15T12:22:52.896Z,63.10
2018-05-15T12:25:21.195Z,61.00
2018-05-15T12:27:48.714Z,61.00
2018-05-15T12:30:16.264Z,61.30
2018-05-15T12:32:43.781Z,61.20
2018-05-15T12:35:11.323Z,61.90
2018-05-15T12:37:39.609Z,64.60
2018-05-15T12:40:07.165Z,64.60
2018-05-15T12:42:35.448Z,61.30
2018-05-15T12:45:02.992Z,61.30
2018-05-15T12:47:31.277Z,60.40
2018-05-15T12:49:59.586Z,59.40
2018-05-15T12:52:27.110Z,59.40
2018-05-15T12:54:54.633Z,60.60
2018-05-15T12:57:22.176Z,57.60
2018-05-15T12:59:49.697Z,56.30
2018-05-15T13:02:18.017Z,57.10
2018-05-15T13:04:45.532Z,57.10
2018-05-15T13:07:13.070Z,56.30
2018-05-15T13:09:40.589Z,54.00
2018-05-15T13:12:08.129Z,55.40
2018-05-15T13:14:36.412Z,54.00
2018-05-15T13:17:04.718Z,56.60
2018-05-15T13:19:32.237Z,56.60
2018-05-15T13:27:07.628Z,60.60
2018-05-15T13:29:35.148Z,56.40
2018-05-15T13:32:02.685Z,56.50
2018-05-15T13:34:30.208Z,55.90
2018-05-15T13:36:57.750Z,56.20
2018-05-15T13:39:25.308Z,56.20
2018-05-15T13:41:52.821Z,57.80
2018-05-15T13:44:20.363Z,56.90
2018-05-15T13:46:48.649Z,56.80
2018-05-15T13:49:16.953Z,55.00
2018-05-15T13:51:44.537Z,55.00
2018-05-15T13:54:12.084Z,55.00
2018-05-15T13:56:39.601Z,58.40
2018-05-15T13:59:07.139Z,56.90
2018-05-15T14:01:34.664Z,57.50
2018-05-15T14:04:02.209Z,57.60
2018-05-15T14:06:30.556Z,59.90
2018-05-15T14:08:58.092Z,59.80
2018-05-15T14:11:25.607Z,58.50
2018-05-15T14:13:53.147Z,59.20
2018-05-15T14:16:20.668Z,59.50
2018-05-15T14:18:48.231Z,59.40
2018-05-15T14:21:15.752Z,56.80
2018-05-15T14:23:43.287Z,59.20
2018-05-15T14:26:10.809Z,59.50
2018-05-15T14:28:38.344Z,60.30
2018-05-15T14:31:05.860Z,59.60
2018-05-15T14:33:33.385Z,61.40
2018-05-15T14:36:00.937Z,62.40
2018-05-15T14:38:29.229Z,70.10
2018-05-15T14:40:56.768Z,70.10
2018-05-15T14:43:25.018Z,71.90
2018-05-15T14:45:52.563Z,74.30
2018-05-15T14:48:20.089Z,78.10
2018-05-15T14:54:07.317Z,81.80
2018-05-15T14:56:35.620Z,81.20
2018-05-15T14:59:03.148Z,81.10
2018-05-15T15:01:30.688Z,81.00
2018-05-15T15:03:58.208Z,81.80
2018-05-15T15:06:25.743Z,85.80
2018-05-15T15:08:53.261Z,85.40
2018-05-15T15:11:20.801Z,88.00
2018-05-15T15:13:48.317Z,86.90
2018-05-15T15:16:15.936Z,89.50
2018-05-15T15:18:43.472Z,93.30
2018-05-15T15:21:11.013Z,97.10
2018-05-15T15:23:38.534Z,99.90
2018-05-15T15:26:06.072Z,99.90
2018-05-15T15:28:33.589Z,99.90
2018-05-15T15:31:01.136Z,99.90
2018-05-15T15:33:28.661Z,99.90
2018-05-15T15:35:56.180Z,99.90
2018-05-15T15:38:24.480Z,99.90
2018-05-15T15:40:51.998Z,99.90
2018-05-15T15:43:19.541Z,99.90
2018-05-15T15:45:47.071Z,99.90
2018-05-15T15:48:14.613Z,99.90
2018-05-15T15:50:42.899Z,99.90
2018-05-15T15:53:10.443Z,99.90
2018-05-15T15:55:38.733Z,99.90
2018-05-15T15:58:07.039Z,99.90
2018-05-15T16:00:34.560Z,99.90
2018-05-15T16:03:02.095Z,99.90
2018-05-15T16:05:29.623Z,99.90
2018-05-15T16:07:57.160Z,99.90
2018-05-15T16:10:25.436Z,99.90
2018-05-15T16:12:53.744Z,99.90
2018-05-15T16:15:21.261Z,99.90
2018-05-15T16:17:49.550Z,99.90
2018-05-15T16:20:17.862Z,99.90
2018-05-15T16:22:45.398Z,99.90
2018-05-15T16:25:12.983Z,99.90
2018-05-15T16:27:40.503Z,99.90
2018-05-15T16:30:08.041Z,99.90
2018-05-15T16:32:35.555Z,99.90
2018-05-15T16:35:03.107Z,99.90
2018-05-15T16:37:31.402Z,99.90
2018-05-15T16:39:58.953Z,99.90
2018-05-15T16:42:26.468Z,99.90
2018-05-15T16:44:54.087Z,99.90
2018-05-15T16:47:21.689Z,99.90
2018-05-15T16:49:49.926Z,99.90
2018-05-15T16:52:17.439Z,99.90
2018-05-15T16:54:44.972Z,99.90
2018-05-15T16:57:12.497Z,99.90
2018-05-15T16:59:40.045Z,99.90
2018-05-15T17:02:08.334Z,99.90
2018-05-15T17:04:35.872Z,99.90
2018-05-15T17:07:03.408Z,99.90
2018-05-15T17:09:30.953Z,99.90
2018-05-15T17:11:58.621Z,99.90
2018-05-15T17:14:26.254Z,99.90
2018-05-15T17:16:53.792Z,99.90
2018-05-15T17:19:21.356Z,99.90
2018-05-15T17:21:49.676Z,99.90
2018-05-15T17:24:17.195Z,99.90
2018-05-15T17:26:45.500Z,99.90
2018-05-15T17:29:13.639Z,99.90
2018-05-15T17:31:41.177Z,99.90
2018-05-15T17:34:08.694Z,99.90
2018-05-15T17:36:36.237Z,99.90
2018-05-15T17:39:04.520Z,99.90
2018-05-15T17:41:32.825Z,99.90
2018-05-15T17:44:00.342Z,99.90
2018-05-15T17:46:27.888Z,99.90
2018-05-15T17:48:55.414Z,99.90
2018-05-15T17:51:22.948Z,99.90
2018-05-15T17:53:50.470Z,99.90
2018-05-15T17:56:18.009Z,99.90
2018-05-15T17:58:45.530Z,99.90
2018-05-15T18:01:13.045Z,99.90
2018-05-15T18:03:40.580Z,99.90
2018-05-15T18:06:08.103Z,99.90
2018-05-15T18:08:36.431Z,99.90
2018-05-15T18:11:03.955Z,99.90
2018-05-15T18:13:31.496Z,99.90
2018-05-15T18:15:59.778Z,99.90
2018-05-15T18:18:28.086Z,99.90
2018-05-15T18:20:55.600Z,99.90
2018-05-15T18:23:23.137Z,99.90
2018-05-15T18:25:50.660Z,99.90
2018-05-15T18:28:18.197Z,99.90
2018-05-15T18:30:46.479Z,99.90
2018-05-15T18:33:14.836Z,99.90
2018-05-15T18:35:43.089Z,99.90
2018-05-15T18:38:10.629Z,99.90
2018-05-15T18:40:38.161Z,99.90
2018-05-15T18:43:06.462Z,99.90
2018-05-15T18:45:33.986Z,99.90
2018-05-15T18:48:02.297Z,99.90
2018-05-15T18:50:29.821Z,99.90
2018-05-15T18:52:57.380Z,99.90
2018-05-15T18:55:24.898Z,99.90
2018-05-15T18:57:52.424Z,99.90
2018-05-15T19:00:20.724Z,99.90
2018-05-15T19:02:48.240Z,99.90
2018-05-15T19:05:15.772Z,99.90
2018-05-15T19:07:43.288Z,99.90
2018-05-15T19:10:10.831Z,99.90
2018-05-15T19:12:39.120Z,99.90
2018-05-15T19:15:07.429Z,99.90
2018-05-15T19:17:34.953Z,99.90
2018-05-15T19:20:03.258Z,99.90
2018-05-15T19:22:30.777Z,99.90
2018-05-15T19:24:58.317Z,99.90
2018-05-15T19:27:25.838Z,99.90
2018-05-15T19:29:53.377Z,99.90
2018-05-15T19:32:27.280Z,99.90
2018-05-15T19:34:56.512Z,99.90
2018-05-15T19:37:24.032Z,99.90
2018-05-15T19:39:51.569Z,99.90
2018-05-15T19:42:19.088Z,99.90
2018-05-15T19:44:46.640Z,99.90
2018-05-15T19:47:14.157Z,99.90
2018-05-15T19:49:41.684Z,99.90
2018-05-15T19:52:09.224Z,99.90
2018-05-15T19:54:36.750Z,99.90
2018-05-15T19:57:04.288Z,99.90
2018-05-15T19:59:31.812Z,99.90
2018-05-15T20:01:59.460Z,99.90
2018-05-15T20:04:26.892Z,99.90
2018-05-15T20:06:55.205Z,99.90
2018-05-15T20:09:22.728Z,99.90
2018-05-15T20:11:50.268Z,99.90
2018-05-15T20:14:18.545Z,99.90
2018-05-15T20:16:46.093Z,99.90
2018-05-15T20:19:13.625Z,99.90
2018-05-15T20:21:41.169Z,99.90
2018-05-15T20:24:09.448Z,99.90
2018-05-15T20:26:37.759Z,99.90
2018-05-15T20:29:05.372Z,99.90
2018-05-15T20:31:32.859Z,99.90
2018-05-15T20:34:00.382Z,99.90
2018-05-15T20:36:27.900Z,99.90
2018-05-15T20:38:55.432Z,99.90
2018-05-15T20:41:23.716Z,99.90
2018-05-15T20:43:52.022Z,99.90
2018-05-15T20:46:19.541Z,99.90
2018-05-15T20:48:47.843Z,99.90
2018-05-15T20:51:15.372Z,99.90
2018-05-15T20:53:43.677Z,99.90
2018-05-15T20:56:11.193Z,99.90
2018-05-15T20:58:38.724Z,99.90
2018-05-15T21:01:06.249Z,99.90
2018-05-15T21:03:33.805Z,99.90
2018-05-15T21:06:02.090Z,99.90
2018-05-15T21:08:30.392Z,99.90
2018-05-15T21:10:57.912Z,99.90
2018-05-15T21:13:25.441Z,99.90
2018-05-15T21:15:52.980Z,99.90
2018-05-15T21:18:20.497Z,99.90
2018-05-15T21:20:48.037Z,99.90
2018-05-15T21:23:15.552Z,99.90
2018-05-15T21:25:43.092Z,99.90
2018-05-15T21:28:11.376Z,99.90
2018-05-15T21:30:39.677Z,99.90
2018-05-15T21:33:07.201Z,99.90
2018-05-15T21:35:35.509Z,99.90
2018-05-15T21:38:03.026Z,99.90
2018-05-15T21:40:30.564Z,99.90
2018-05-15T21:42:58.085Z,99.90
2018-05-15T21:45:25.626Z,99.90
2018-05-15T21:47:53.924Z,99.90
2018-05-15T21:50:21.458Z,99.90
2018-05-15T21:52:49.004Z,99.90
2018-05-15T21:55:16.540Z,99.90
2018-05-15T21:57:44.064Z,99.90
2018-05-15T22:00:11.580Z,99.90
2018-05-15T22:02:39.125Z,99.90
2018-05-15T22:05:06.643Z,99.90
2018-05-15T22:07:34.954Z,99.90
2018-05-15T22:10:02.480Z,99.90
2018-05-15T22:12:42.548Z,99.90
2018-05-15T22:15:21.949Z,99.90
2018-05-15T22:18:01.185Z,99.90
2018-05-15T22:20:40.375Z,99.90
2018-05-15T22:23:07.423Z,99.90
2018-05-15T22:25:34.936Z,99.90
2018-05-15T22:28:02.473Z,99.90
2018-05-15T22:30:29.992Z,99.90
2018-05-15T22:32:57.528Z,99.90
2018-05-15T22:35:25.817Z,99.90
2018-05-15T22:37:53.361Z,99.90
2018-05-15T22:40:20.878Z,99.90
2018-05-15T22:42:48.417Z,99.90
2018-05-15T22:45:15.937Z,99.90
2018-05-15T22:47:43.482Z,99.90
2018-05-15T22:50:11.000Z,99.90
2018-05-15T22:52:38.548Z,99.90
2018-05-15T22:55:06.060Z,99.90
2018-05-15T22:57:33.617Z,99.90
2018-05-15T23:00:01.153Z,99.90
2018-05-15T23:02:28.676Z,99.90
2018-05-15T23:04:56.976Z,99.90
2018-05-15T23:07:24.488Z,99.90
2018-05-15T23:09:52.032Z,99.90
2018-05-15T23:12:19.557Z,99.90
2018-05-15T23:14:47.100Z,99.90
2018-05-15T23:17:15.384Z,99.90
2018-05-15T23:19:43.685Z,99.90
2018-05-15T23:25:06.896Z,99.90
2018-05-15T23:27:34.413Z,99.90
2018-05-15T23:30:01.953Z,99.90
2018-05-15T23:32:30.235Z,99.90
2018-05-15T23:34:58.536Z,99.90
2018-05-15T23:37:26.052Z,99.90
2018-05-15T23:39:53.590Z,99.90
2018-05-15T23:42:21.116Z,99.90
2018-05-15T23:44:48.656Z,99.90
2018-05-15T23:47:16.941Z,99.90
2018-05-15T23:49:45.245Z,99.90
2018-05-15T23:52:12.760Z,99.90
2018-05-15T23:54:40.298Z,99.90
2018-05-15T23:57:07.813Z,99.90
2018-05-15T23:59:35.357Z,99.90
